STAZIONE METEO DI BARCELLONA P.G. CENTRO
Dati campionati ogni minuto da Consolle Davis Vantage Pro 2
ed inviati alla rete mediante server Anemos WDS5 wview



Barcellona P.G. Centro more information Barcellona P.G. Centro


Golfo di Patti more information Golfo di Patti


Thunder radar more information blitzortung!


Rain radar  rain snow radar


altri nostri siti meteo:

Rischio IncendiRischio Incendi

Rete NOAA MADIS

Italia Meteo Network

PomeziameteoSito web di stazione meteo amica



Vento Da: 23-10-2019 09:00 Fino a: 22:59 Avvertimento per: Vento Livello: Giallo info button
english:
No Special Awareness Required BE AWARE, keep up to date with the latest weather forecast. Expect some minor disruption to outdoor activities

italiano:
Nessun Avviso STARE (RIMANERE) ATTENTI. Tenersi aggiornati con le previsioni del tempo più recenti. Aspettarsi alcuni disagi minori per le attività all'aria aperta. 

Report METAR

   
LICF - Messina, Italy
Distanza dalla stazione: NE 30 km
Dati ricevuti: 23-10-2019 11:55
Poche nuvole  
Poche nuvole  
   Vento: SW 24.1 km/h<br />Gust to 24.1 km/h
Vento: SW 24.1 km/h
Gust to 24.1 km/h
Temperatura: 24°C
P.to Rugiada: 13°C
Umidità: 50%
Barometro: 1018 hPa
Nuvole: Poche nuvole
Visibilità: oltre 10 km
dettagli cloud: Poche nuvole 1066.8 m
LICF 230955Z 22013G25KT 9999 FEW035 24/13 Q1018 RMK FEW QUK 2 QUL 1 SW VIS MAR 16 KM MON LIB NC VIS MIN 9999
LICR - Reggio Calabria, Italy
Distanza dalla stazione: SE 39 km
Dati ricevuti: 23-10-2019 11:50
Sereno  
Sereno  
   Vento: S 29.6 km/h
Vento: S 29.6 km/h
Temperatura: 25°C
P.to Rugiada: 17°C
Umidità: 61%
Barometro: 1019 hPa
Visibilità: oltre 10 km
dettagli cloud: Sereno
LICR 230950Z 20016KT CAVOK 25/17 Q1019
LICC - Catania/Fontanar, Italy
Distanza dalla stazione: S 77 km
Dati ricevuti: 23-10-2019 12:50
Poche nuvole  
Poche nuvole  
   Vento: NE 14.8 km/h
Vento: NE 14.8 km/h
Temperatura: 24°C
P.to Rugiada: 18°C
Umidità: 69%
Barometro: 1019 hPa
Nuvole: Poche nuvole
Visibilità: oltre 10 km
dettagli cloud: Poche nuvole 762 m
LICC 231050Z 07008KT 040V110 9999 FEW025 24/18 Q1019
LICZ - Sigonella (nas), Italy
Distanza dalla stazione: S 89 km
Dati ricevuti: 23-10-2019 11:55
Parzialmente nuvoloso  
Parzialmente nuvoloso  
   Vento: Oriente 13 km/h
Vento: Oriente 13 km/h
Temperatura: 23°C
P.to Rugiada: 19°C
Umidità: 78%
Barometro: 1020 hPa
Nuvole: Parzialmente nuvoloso
Visibilità: 8 km
dettagli cloud: Parzialmente nuvoloso 609.6 m
LICZ 230955Z 09007KT 8000 SCT020 23/19 Q1020 RMK SCT VIS MIN 8000 WIND THR28 08007KT WIND THR10 08007KT A3014 BLU
LICA - Lamezia Terme, Italy
Distanza dalla stazione: NE 122 km
Dati ricevuti: 23-10-2019 11:50
Sereno  
Sereno  
   Vento: Oriente 25.9 km/h
Vento: Oriente 25.9 km/h
Temperatura: 25°C
P.to Rugiada: 15°C
Umidità: 54%
Barometro: 1019 hPa
Visibilità: oltre 10 km
dettagli cloud: Sereno
LICA 230950Z 09014KT CAVOK 25/15 Q1019
LICB - Comiso, Italy
Distanza dalla stazione: S 138 km
Dati ricevuti: 23-10-2019 11:50
Sereno  
Sereno  
   Vento: SE 11.1 km/h
Vento: SE 11.1 km/h
Temperatura: 24°C
P.to Rugiada: 14°C
Umidità: 54%
Barometro: 1020 hPa
Visibilità: oltre 10 km
dettagli cloud: Sereno
LICB 230950Z 11006KT 060V170 CAVOK 24/14 Q1020

Script sviluppato da  Saratoga-weather.org Adattato per il modello da  Weerstation Leuven

Potete trovare le nostre info meteo anche a:

European Weather Network

Weather Underground

AWEKAS

Citizen Weather Observer Program (CWOP)

HAMweather, WeatherForYou, PWS Weather

Attrezzature usate:

Stazione meteo
Davis VP2

Programma gestore dati meteo
WVIEW

Server per i dati meteo
WDS5 Ecoblack

Davis VP2

WVIEW

WDS5 Ecoblack